Paradise, MI

5:10 AM EST on January 30, 2015 (GMT -0500)
Sault Ste Marie Municipal / Sanderson Field | Change Station
CLOSE
Current Station
Airport
Location: Sault Ste Marie,
Elevation: 715 ft
Nearby Weather Stations

Elev 715 ft 46.48 °N, 84.36 °W | Updated 15 minutes ago

Mostly Cloudy
Mostly Cloudy
-2 °F
Feels Like -18 °F
N
9
Wind Variable Wind from NW

Today
High -- | Low -- °F
--% Chance of Precip.
Yesterday
High -- | Low -- °F
Precip. -- in
8:07 AM 5:41 PM
Waxing Gibbous, 81% visible
Pressure 30.42 in
Visibility 10.0 miles
Clouds Clear
Windchill -18 °F
Dew Point -12 °F
Humidity 63%
Rainfall 0.00 in
Snow Depth Not available.
UV 0 out of 12
Pollen .10 out of 12
Air Quality Not available.
Flu Activity Not available.
METAR KANJ 300955Z AUTO 31008KT 10SM CLR M19/M24 A3037 RMK AO2 SLP299 T11891244

More Conditions Fewer Conditions

Pressure 30.42 in
Visibility 10.0 miles
Clouds Clear
Windchill -18 °F
Dew Point -12 °F
Humidity 63%
Rainfall 0.00 in
Snow Depth Not available.
UV 0 out of 12
Pollen .10 out of 12
Air Quality Not available.
Flu Activity Not available.
METAR KANJ 300955Z AUTO 31008KT 10SM CLR M19/M24 A3037 RMK AO2 SLP299 T11891244

More Conditions Fewer Conditions

Nowcast | as of 5:00 am EST on January 30, 2015

At 6 am...clear. Temperature 2 below. North winds 8 mph. At 8 am...clear. Temperature 3 below. North winds 7 mph. At 10 am...mostly clear. Temperature 1 below. North winds 6 mph. At 12 PM...mostly clear. Temperature 3 above. Northwest winds 6 mph.

×

10-Day Weather Forecast

Almanac

Astronomy

Jan. 30, 2015 Rise Set
Actual Time
Civil Twilight
Nautical Twilight
Astronomical Twilight
Moon
Length of Visible Light
Length of Day
Tomorrow will be .
, % of the Moon is Illuminated

Today's Extremes

State Highs State Lows

Community

WunderPhotos

Upload Photos

1,791,736 photos uploaded!

WunderBlogs® & News

Nearby

Air Quality

  Air Quality AQ Index Pollutant
Not available.

Snow Depth

Station Depth Elevation

Earthquake Activity

City Distance Mag. Time & Date
Minimum magnitude displayed is 2.5.

Coastal Water Temperatures

Place Temperature

Nearby Weather Stations